Main page
METAR-TAF:

METAR-TAF

Airports :

Córdoba, Spain

Córdoba Airport

latitude: 37-51N, longitude: 004-51W, elevation: 90 m

Current weather observation

The report was made 40 minutes ago, at 16:00 UTC
Wind 6 kt from the Southwest, varying between South/Southwest and West
Temperature 34°C
Humidity 18%
Pressure 1012 hPa
Visibility 10 km or more

METAR: LEBA 221600Z AUTO 23006KT 200V280 9999 NCD 34/06 Q1012

Time: 18:40 (16:40 UTC)

Forecast

The report was made 2 hours and 40 minutes ago, at 14:00 UTC
Forecast valid from 22 at 15 UTC to 22 at 24 UTC
Wind 5 kt from the Southwest
Visibility 10 km or more
no clouds below 1500 m and no cumulonimbus

TAF: LEBA 221400Z 2215/2224 23005KT CAVOK

Weather observations and forecasts of more than 4000 airports (METAR and TAF reports).

The available stations are represented by yellow and red dots on the map.

Hover mouse over dot to see the name of the station.

Then click to see weather observations and forecasts.

To change the map : click on the green buttons with a black cross to zoom in, on the green button with a dash to zoom out, or on the green arrows for adjacent maps.


METAR-TAF: